Time;durP1;ratioP1;P1;durP2;ratioP2;P2;SDS_P1;SDS_P2;PMS_P1;PMS_P2;Temp;Humidity;BMP_temperature;BMP_pressure;BME280_temperature;BME280_humidity;BME280_pressure;Samples;Min_cycle;Max_cycle;Signal;HPM_P1;HPM_P2
2022/03/14 00:00:13;;;;;;;23.57;22.27;;;;;;;-141.02;100.00;55844.97;5136565;27;20563;-71
2022/03/14 00:02:40;;;;;;;23.50;22.00;;;;;;;-141.02;100.00;55844.97;5136282;27;20571;-71
2022/03/14 00:05:15;;;;;;;23.30;21.80;;;;;;;-141.02;100.00;55844.97;5136607;27;20228;-71
2022/03/14 00:07:44;;;;;;;21.60;20.20;;;;;;;-141.02;100.00;55844.97;5136560;27;20187;-71
2022/03/14 00:10:14;;;;;;;23.57;21.03;;;;;;;-141.02;100.00;55844.97;5136183;27;20200;-71
2022/03/14 00:12:42;;;;;;;22.77;21.03;;;;;;;-141.02;100.00;55844.97;5136716;27;20207;-71
2022/03/14 00:15:11;;;;;;;23.80;22.27;;;;;;;-141.02;100.00;55844.97;5136389;27;20224;-72
2022/03/14 00:17:38;;;;;;;23.93;22.23;;;;;;;-141.02;100.00;55844.97;5136053;27;20199;-71
2022/03/14 00:20:07;;;;;;;23.07;21.57;;;;;;;-141.02;100.00;55844.97;5135903;27;20223;-71
2022/03/14 00:22:37;;;;;;;23.20;21.60;;;;;;;-141.02;100.00;55844.97;5135908;27;20655;-71
2022/03/14 00:25:05;;;;;;;22.03;20.43;;;;;;;-141.02;100.00;55844.97;5136198;27;20280;-71
2022/03/14 00:27:32;;;;;;;22.67;21.30;;;;;;;-141.02;100.00;55844.97;5135853;27;20650;-71
2022/03/14 00:29:59;;;;;;;22.30;20.90;;;;;;;-141.02;100.00;55844.97;5136086;27;20193;-72
2022/03/14 00:32:26;;;;;;;23.60;22.03;;;;;;;-141.02;100.00;55844.97;5135754;27;20696;-71
2022/03/14 00:34:53;;;;;;;22.17;20.77;;;;;;;-141.02;100.00;55844.97;5135995;27;20283;-71
2022/03/14 00:37:20;;;;;;;20.93;19.13;;;;;;;-141.02;100.00;55844.97;5135969;27;20231;-71
2022/03/14 00:39:49;;;;;;;20.37;18.97;;;;;;;-141.02;100.00;55844.97;5135416;27;20268;-71
2022/03/14 00:42:20;;;;;;;21.20;19.77;;;;;;;-141.02;100.00;55844.97;5135830;27;20189;-72
2022/03/14 00:44:47;;;;;;;21.63;20.33;;;;;;;-141.02;100.00;55844.97;5135608;27;20184;-72
2022/03/14 00:47:14;;;;;;;23.00;21.40;;;;;;;-141.02;100.00;55844.97;5135737;27;20200;-71
2022/03/14 00:49:41;;;;;;;21.43;20.17;;;;;;;-141.02;100.00;55844.97;5135493;27;20288;-71
2022/03/14 00:52:08;;;;;;;22.27;20.97;;;;;;;-141.02;100.00;55844.97;5135389;27;20196;-71
2022/03/14 00:54:35;;;;;;;21.17;19.87;;;;;;;-141.02;100.00;55844.97;5134028;27;20227;-74
2022/03/14 00:57:04;;;;;;;21.17;19.87;;;;;;;-141.02;100.00;55844.97;5135267;27;20226;-71
2022/03/14 00:59:32;;;;;;;24.17;21.73;;;;;;;-141.02;100.00;55844.97;5135452;27;20285;-71
2022/03/14 01:01:59;;;;;;;21.57;20.27;;;;;;;-141.02;100.00;55844.97;5135502;27;20196;-71
2022/03/14 01:04:26;;;;;;;22.47;21.10;;;;;;;-141.02;100.00;55844.97;5135428;27;20275;-71
2022/03/14 01:06:53;;;;;;;26.00;22.73;;;;;;;-141.02;100.00;55844.97;5135412;27;20250;-71
2022/03/14 01:09:20;;;;;;;22.43;21.03;;;;;;;-141.02;100.00;55844.97;5135348;27;20211;-71
2022/03/14 01:11:47;;;;;;;22.13;20.50;;;;;;;-141.02;100.00;55844.97;5134932;27;20252;-71
2022/03/14 01:14:16;;;;;;;22.10;20.50;;;;;;;-141.02;100.00;55844.97;5134971;27;20192;-71
2022/03/14 01:16:43;;;;;;;23.63;22.23;;;;;;;-141.02;100.00;55844.97;5136071;27;20196;-71
2022/03/14 01:19:11;;;;;;;24.33;22.43;;;;;;;-141.02;100.00;55844.97;5135103;27;20232;-71
2022/03/14 01:21:38;;;;;;;26.40;24.20;;;;;;;-141.02;100.00;55844.97;5135076;27;20189;-71
2022/03/14 01:24:07;;;;;;;24.10;21.80;;;;;;;-141.02;100.00;55844.97;5135058;27;20653;-71
2022/03/14 01:26:34;;;;;;;29.60;26.80;;;;;;;-141.02;100.00;55844.97;5134741;27;20203;-71
2022/03/14 01:29:02;;;;;;;26.73;24.37;;;;;;;-141.02;100.00;55844.97;5135185;27;20230;-71
2022/03/14 01:31:31;;;;;;;26.83;24.27;;;;;;;-141.02;100.00;55844.97;5134924;27;20192;-71
2022/03/14 01:33:58;;;;;;;29.47;27.13;;;;;;;-141.02;100.00;55844.97;5134829;27;20642;-71
2022/03/14 01:36:25;;;;;;;22.93;21.50;;;;;;;-141.02;100.00;55844.97;5134497;27;20196;-71
2022/03/14 01:38:53;;;;;;;21.77;20.57;;;;;;;-141.02;100.00;55844.97;5134557;27;20272;-74
2022/03/14 01:41:22;;;;;;;21.60;20.40;;;;;;;-141.02;100.00;55844.97;5134369;27;20663;-71
2022/03/14 01:43:49;;;;;;;20.90;19.60;;;;;;;-141.02;100.00;55844.97;5134365;27;20192;-74
2022/03/14 01:46:18;;;;;;;22.50;21.20;;;;;;;-141.02;100.00;55844.97;5134514;27;20624;-72
2022/03/14 01:48:46;;;;;;;25.97;23.97;;;;;;;-141.02;100.00;55844.97;5134467;27;20201;-71
2022/03/14 01:51:14;;;;;;;24.33;22.93;;;;;;;-141.02;100.00;55844.97;5134532;27;20193;-71
2022/03/14 01:53:42;;;;;;;23.30;22.00;;;;;;;-141.02;100.00;55844.97;5134155;27;20253;-71
2022/03/14 01:56:12;;;;;;;24.00;22.40;;;;;;;-141.02;100.00;55844.97;5134145;27;20189;-71
2022/03/14 01:58:39;;;;;;;28.90;26.10;;;;;;;-141.02;100.00;55844.97;5134079;27;20216;-71
2022/03/14 02:01:07;;;;;;;23.63;22.13;;;;;;;-141.02;100.00;55844.97;5134067;27;20249;-71
2022/03/14 02:03:34;;;;;;;23.13;21.73;;;;;;;-141.02;100.00;55844.97;5134284;27;20257;-71
2022/03/14 02:06:02;;;;;;;23.57;21.83;;;;;;;-141.02;100.00;55844.97;5133765;27;20283;-71
2022/03/14 02:08:29;;;;;;;20.50;19.30;;;;;;;-141.02;100.00;55844.97;5134168;27;20254;-71
2022/03/14 02:10:56;;;;;;;20.33;19.23;;;;;;;-141.02;100.00;55844.97;5133847;27;20726;-71
2022/03/14 02:13:24;;;;;;;20.20;19.00;;;;;;;-141.02;100.00;55844.97;5133818;27;20698;-71
2022/03/14 02:15:51;;;;;;;21.47;20.20;;;;;;;-141.02;100.00;55844.97;5133704;27;20195;-71
2022/03/14 02:18:18;;;;;;;22.97;21.77;;;;;;;-141.02;100.00;55844.97;5134218;27;20248;-71
2022/03/14 02:20:46;;;;;;;24.37;23.07;;;;;;;-141.02;100.00;55844.97;5133529;27;20698;-71
2022/03/14 02:23:13;;;;;;;21.73;20.53;;;;;;;-141.02;100.00;55844.97;5133620;27;20241;-71
2022/03/14 02:25:47;;;;;;;21.70;20.40;;;;;;;-141.02;100.00;55844.97;5133577;27;20667;-71
2022/03/14 02:28:15;;;;;;;21.10;19.90;;;;;;;-141.02;100.00;55844.97;5133935;27;20670;-72
2022/03/14 02:30:42;;;;;;;22.13;21.00;;;;;;;-141.02;100.00;55844.97;5133815;27;20275;-72
2022/03/14 02:33:09;;;;;;;22.77;21.57;;;;;;;-141.02;100.00;55844.97;5133994;27;20566;-71
2022/03/14 02:35:39;;;;;;;23.70;22.30;;;;;;;-141.02;100.00;55844.97;5133751;27;20292;-71
2022/03/14 02:38:09;;;;;;;23.70;22.40;;;;;;;-141.02;100.00;55844.97;5133099;27;20224;-71
2022/03/14 02:40:37;;;;;;;23.10;21.90;;;;;;;-141.02;100.00;55844.97;5133651;27;20304;-71
2022/03/14 02:43:04;;;;;;;24.33;23.03;;;;;;;-141.02;100.00;55844.97;5133309;27;20666;-71
2022/03/14 02:45:31;;;;;;;23.40;22.20;;;;;;;-141.02;100.00;55844.97;5133295;27;20718;-71
2022/03/14 02:47:58;;;;;;;26.77;25.37;;;;;;;-141.02;100.00;55844.97;5133224;27;20196;-71
2022/03/14 02:50:26;;;;;;;26.00;24.60;;;;;;;-141.02;100.00;55844.97;5133381;27;20278;-73
2022/03/14 02:52:54;;;;;;;22.23;20.83;;;;;;;-141.02;100.00;55844.97;5133157;27;20579;-75
2022/03/14 02:55:23;;;;;;;24.40;23.10;;;;;;;-141.02;100.00;55844.97;5133409;27;20189;-71
2022/03/14 02:57:50;;;;;;;25.00;23.60;;;;;;;-141.02;100.00;55844.97;5133452;27;20273;-74
2022/03/14 03:00:17;;;;;;;25.03;23.63;;;;;;;-141.02;100.00;55844.97;5133319;27;20260;-71
2022/03/14 03:02:45;;;;;;;25.30;23.90;;;;;;;-141.02;100.00;55844.97;5133062;27;20766;-71
2022/03/14 03:05:12;;;;;;;27.27;25.33;;;;;;;-141.02;100.00;55844.97;5133382;27;20271;-71
2022/03/14 03:07:39;;;;;;;25.97;24.33;;;;;;;-141.02;100.00;55844.97;5132950;27;20676;-71
2022/03/14 03:10:07;;;;;;;25.47;23.97;;;;;;;-141.02;100.00;55844.97;5132992;28;20197;-71
2022/03/14 03:12:40;;;;;;;25.37;23.87;;;;;;;-141.02;100.00;55844.97;5132864;28;20577;-71
2022/03/14 03:15:14;;;;;;;25.93;24.17;;;;;;;-141.02;100.00;55844.97;5134091;27;20189;-71
2022/03/14 03:17:41;;;;;;;26.70;24.80;;;;;;;-141.02;100.00;55844.97;5135229;27;20226;-71
2022/03/14 03:20:09;;;;;;;24.47;23.17;;;;;;;-141.02;100.00;55844.97;5137965;27;20267;-71
2022/03/14 03:22:38;;;;;;;26.57;24.87;;;;;;;-141.02;100.00;55844.97;5137159;27;20220;-71
2022/03/14 03:25:06;;;;;;;27.10;25.43;;;;;;;-141.02;100.00;55844.97;5137083;27;20231;-71
2022/03/14 03:27:33;;;;;;;26.53;24.77;;;;;;;-141.02;100.00;55844.97;5137659;27;20192;-71
2022/03/14 03:30:02;;;;;;;26.13;24.63;;;;;;;-141.02;100.00;55844.97;5137002;27;20658;-72
2022/03/14 03:32:30;;;;;;;27.13;25.03;;;;;;;-141.02;100.00;55844.97;5137359;27;20193;-72
2022/03/14 03:34:57;;;;;;;27.17;25.57;;;;;;;-141.02;100.00;55844.97;5137170;27;20196;-73
2022/03/14 03:37:24;;;;;;;27.80;26.00;;;;;;;-141.02;100.00;55844.97;5137159;27;20750;-72
2022/03/14 03:39:51;;;;;;;25.87;24.17;;;;;;;-141.02;100.00;55844.97;5137076;27;20263;-72
2022/03/14 03:42:18;;;;;;;25.03;23.60;;;;;;;-141.02;100.00;55844.97;5136803;27;20232;-71
2022/03/14 03:44:45;;;;;;;24.40;23.00;;;;;;;-141.02;100.00;55844.97;5137055;27;20192;-74
2022/03/14 03:47:13;;;;;;;25.43;23.93;;;;;;;-141.02;100.00;55844.97;5136596;27;20200;-71
2022/03/14 03:49:40;;;;;;;26.07;24.47;;;;;;;-141.02;100.00;55844.97;5136655;27;20200;-72
2022/03/14 03:52:08;;;;;;;26.13;24.63;;;;;;;-141.02;100.00;55844.97;5136903;27;20595;-71
2022/03/14 03:54:35;;;;;;;25.77;24.17;;;;;;;-141.02;100.00;55844.97;5136847;27;20288;-71
2022/03/14 03:57:02;;;;;;;27.30;25.60;;;;;;;-141.02;100.00;55844.97;5137039;27;20222;-71
2022/03/14 03:59:29;;;;;;;24.93;23.53;;;;;;;-141.02;100.00;55844.97;5136642;27;20224;-71
2022/03/14 04:01:56;;;;;;;23.97;22.67;;;;;;;-141.02;100.00;55844.97;5136756;27;20271;-71
2022/03/14 04:04:26;;;;;;;24.63;23.30;;;;;;;-141.02;100.00;55844.97;5136633;27;20651;-72
2022/03/14 04:06:55;;;;;;;24.50;23.20;;;;;;;-141.02;100.00;55844.97;5136564;27;20193;-72
2022/03/14 04:09:22;;;;;;;25.13;23.67;;;;;;;-141.02;100.00;55844.97;5137099;27;20201;-72
2022/03/14 04:11:50;;;;;;;24.67;22.87;;;;;;;-141.02;100.00;55844.97;5136605;27;20312;-71
2022/03/14 04:14:18;;;;;;;25.30;23.93;;;;;;;-141.02;100.00;55844.97;5136492;27;20288;-71
2022/03/14 04:16:45;;;;;;;25.70;24.20;;;;;;;-141.02;100.00;55844.97;5136072;27;20287;-72
2022/03/14 04:19:12;;;;;;;23.33;21.90;;;;;;;-141.02;100.00;55844.97;5136290;27;20189;-71
2022/03/14 04:21:41;;;;;;;24.70;23.30;;;;;;;-141.02;100.00;55844.97;5136592;27;20275;-71
2022/03/14 04:24:08;;;;;;;25.77;24.10;;;;;;;-141.02;100.00;55844.97;5135977;27;20188;-71
2022/03/14 04:26:34;;;;;;;25.30;23.70;;;;;;;-141.02;100.00;55844.97;5136288;27;20290;-71
2022/03/14 04:29:01;;;;;;;24.97;22.77;;;;;;;-141.02;100.00;55844.97;5135939;27;20227;-71
2022/03/14 04:31:29;;;;;;;23.33;22.13;;;;;;;-141.02;100.00;55844.97;5135882;27;20239;-72
2022/03/14 04:33:57;;;;;;;23.20;22.00;;;;;;;-141.02;100.00;55844.97;5135792;27;20200;-72
2022/03/14 04:36:24;;;;;;;19.20;18.10;;;;;;;-141.02;100.00;55844.97;5136036;27;20674;-72
2022/03/14 04:38:52;;;;;;;19.57;18.37;;;;;;;-141.02;100.00;55844.97;5135537;27;20273;-72
2022/03/14 04:41:20;;;;;;;20.30;19.20;;;;;;;-141.02;100.00;55844.97;5135579;27;20220;-72
2022/03/14 04:43:47;;;;;;;19.40;18.20;;;;;;;-141.02;100.00;55844.97;5135617;27;20193;-71
2022/03/14 04:46:15;;;;;;;20.83;19.53;;;;;;;-141.02;100.00;55844.97;5135538;27;20567;-72
2022/03/14 04:48:42;;;;;;;19.50;18.23;;;;;;;-141.02;100.00;55844.97;5135735;27;20192;-73
2022/03/14 04:51:10;;;;;;;21.00;19.70;;;;;;;-141.02;100.00;55844.97;5135694;27;20192;-73
2022/03/14 04:53:37;;;;;;;24.33;21.20;;;;;;;-141.02;100.00;55844.97;5135419;27;20727;-72
2022/03/14 04:56:07;;;;;;;21.50;19.93;;;;;;;-141.02;100.00;55844.97;5135334;27;20249;-72
2022/03/14 04:58:34;;;;;;;21.73;20.30;;;;;;;-141.02;100.00;55844.97;5135645;27;20257;-71
2022/03/14 05:01:02;;;;;;;22.20;20.90;;;;;;;-141.02;100.00;55844.97;5135503;27;20282;-72
2022/03/14 05:03:29;;;;;;;22.97;21.13;;;;;;;-141.02;100.00;55844.97;5135186;27;20651;-72
2022/03/14 05:05:56;;;;;;;23.17;21.70;;;;;;;-141.02;100.00;55844.97;5135160;27;20200;-72
2022/03/14 05:08:23;;;;;;;24.07;22.70;;;;;;;-141.02;100.00;55844.97;5135090;27;20228;-72
2022/03/14 05:10:51;;;;;;;23.67;22.17;;;;;;;-141.02;100.00;55844.97;5135098;27;20287;-76
2022/03/14 05:13:20;;;;;;;24.40;22.87;;;;;;;-141.02;100.00;55844.97;5135251;27;20283;-72
2022/03/14 05:15:47;;;;;;;26.63;22.50;;;;;;;-141.02;100.00;55844.97;5134945;27;20806;-72
2022/03/14 05:18:14;;;;;;;22.23;21.03;;;;;;;-141.02;100.00;55844.97;5135139;27;20192;-76
2022/03/14 05:20:41;;;;;;;22.50;21.20;;;;;;;-141.02;100.00;55844.97;5134740;27;20610;-74
2022/03/14 05:23:08;;;;;;;23.70;22.23;;;;;;;-141.02;100.00;55844.97;5134856;27;20193;-72
2022/03/14 05:25:35;;;;;;;20.50;19.30;;;;;;;-141.02;100.00;55844.97;5135418;27;20196;-71
2022/03/14 05:28:02;;;;;;;19.53;18.63;;;;;;;-141.02;100.00;55844.97;5134980;27;20188;-71
2022/03/14 05:30:31;;;;;;;21.77;20.47;;;;;;;-141.02;100.00;55844.97;5134661;27;20196;-76
2022/03/14 05:32:58;;;;;;;21.20;20.00;;;;;;;-141.02;100.00;55844.97;5134891;27;20192;-72
2022/03/14 05:35:25;;;;;;;20.67;19.57;;;;;;;-141.02;100.00;55844.97;5134915;27;20228;-72
2022/03/14 05:37:53;;;;;;;21.13;20.03;;;;;;;-141.02;100.00;55844.97;5134365;27;20228;-71
2022/03/14 05:40:20;;;;;;;22.77;21.17;;;;;;;-141.02;100.00;55844.97;5134081;27;20224;-71
2022/03/14 05:42:48;;;;;;;21.27;20.07;;;;;;;-141.02;100.00;55844.97;5134392;27;20196;-72
2022/03/14 05:45:16;;;;;;;19.50;18.40;;;;;;;-141.02;100.00;55844.97;5135160;27;20204;-76
2022/03/14 05:47:45;;;;;;;20.93;19.73;;;;;;;-141.02;100.00;55844.97;5134686;27;20201;-71
2022/03/14 05:50:12;;;;;;;20.37;19.17;;;;;;;-141.02;100.00;55844.97;5134610;27;20618;-71
2022/03/14 05:52:39;;;;;;;19.93;18.83;;;;;;;-141.02;100.00;55844.97;5134245;27;20284;-72
2022/03/14 05:55:08;;;;;;;20.07;18.97;;;;;;;-141.02;100.00;55844.97;5134132;27;20725;-71
2022/03/14 05:57:35;;;;;;;20.57;19.37;;;;;;;-141.02;100.00;55844.97;5134098;27;20203;-71
2022/03/14 06:00:03;;;;;;;20.33;19.13;;;;;;;-141.02;100.00;55844.97;5134015;27;20255;-71
2022/03/14 06:02:30;;;;;;;19.87;18.77;;;;;;;-141.02;100.00;55844.97;5134340;27;20196;-71
2022/03/14 06:04:58;;;;;;;18.77;17.70;;;;;;;-141.02;100.00;55844.97;5134303;27;20238;-71
2022/03/14 06:07:25;;;;;;;18.50;17.40;;;;;;;-141.02;100.00;55844.97;5134417;27;20241;-71
2022/03/14 06:09:52;;;;;;;19.10;18.10;;;;;;;-141.02;100.00;55844.97;5134233;27;20193;-70
2022/03/14 06:12:26;;;;;;;19.40;18.30;;;;;;;-141.02;100.00;55844.97;5134238;27;20219;-71
2022/03/14 06:14:54;;;;;;;23.10;21.40;;;;;;;-141.02;100.00;55844.97;5133809;27;20228;-71
2022/03/14 06:17:21;;;;;;;22.17;20.67;;;;;;;-141.02;100.00;55844.97;5133789;27;20192;-71
2022/03/14 06:19:49;;;;;;;34.87;22.80;;;;;;;-141.02;100.00;55844.97;5133642;27;20715;-70
2022/03/14 06:22:18;;;;;;;31.10;28.77;;;;;;;-141.02;100.00;55844.97;5134326;27;20615;-70
2022/03/14 06:24:47;;;;;;;25.27;23.47;;;;;;;-141.02;100.00;55844.97;5133973;27;20204;-70
2022/03/14 06:27:16;;;;;;;22.27;20.87;;;;;;;-141.02;100.00;55844.97;5133671;27;20199;-71
2022/03/14 06:29:43;;;;;;;21.57;20.07;;;;;;;-141.02;100.00;55844.97;5134170;27;20727;-71
2022/03/14 06:32:10;;;;;;;20.67;19.47;;;;;;;-141.02;100.00;55844.97;5133507;27;20199;-71
2022/03/14 06:34:37;;;;;;;24.17;22.43;;;;;;;-141.02;100.00;55844.97;5134635;27;20307;-71
2022/03/14 06:37:07;;;;;;;21.67;20.33;;;;;;;-141.02;100.00;55844.97;5133832;27;20192;-71
2022/03/14 06:39:37;;;;;;;21.00;19.77;;;;;;;-141.02;100.00;55844.97;5133701;27;20273;-71
2022/03/14 06:42:06;;;;;;;22.07;20.67;;;;;;;-141.02;100.00;55844.97;5133487;27;20319;-71
2022/03/14 06:44:33;;;;;;;23.13;21.53;;;;;;;-141.02;100.00;55844.97;5133694;27;20253;-71
2022/03/14 06:47:00;;;;;;;21.20;20.00;;;;;;;-141.02;100.00;55844.97;5133529;27;20249;-71
2022/03/14 06:49:27;;;;;;;20.80;19.50;;;;;;;-141.02;100.00;55844.97;5133210;27;20245;-71
2022/03/14 06:51:54;;;;;;;19.80;18.70;;;;;;;-141.02;100.00;55844.97;5134271;27;20540;-71
2022/03/14 06:54:21;;;;;;;20.00;18.70;;;;;;;-141.02;100.00;55844.97;5133224;27;20248;-72
2022/03/14 06:56:49;;;;;;;21.17;19.77;;;;;;;-141.02;100.00;55844.97;5133132;27;20200;-72
2022/03/14 06:59:16;;;;;;;19.87;18.77;;;;;;;-141.02;100.00;55844.97;5133377;27;20196;-72
2022/03/14 07:01:43;;;;;;;19.40;18.30;;;;;;;-141.02;100.00;55844.97;5133330;27;20312;-73
2022/03/14 07:04:11;;;;;;;22.50;20.90;;;;;;;-141.02;100.00;55844.97;5133014;27;20188;-72
2022/03/14 07:06:38;;;;;;;20.07;18.87;;;;;;;-141.02;100.00;55844.97;5132987;27;20241;-71
2022/03/14 07:09:05;;;;;;;20.50;19.30;;;;;;;-141.02;100.00;55844.97;5133286;27;20241;-71
2022/03/14 07:11:32;;;;;;;20.80;19.53;;;;;;;-141.02;100.00;55844.97;5133361;27;20203;-74
2022/03/14 07:14:01;;;;;;;20.13;18.87;;;;;;;-141.02;100.00;55844.97;5132999;27;20654;-74
2022/03/14 07:16:28;;;;;;;21.33;19.83;;;;;;;-141.02;100.00;55844.97;5132916;27;20196;-72
2022/03/14 07:18:55;;;;;;;20.23;18.93;;;;;;;-141.02;100.00;55844.97;5133184;28;20228;-71
2022/03/14 07:21:28;;;;;;;23.83;22.27;;;;;;;-141.02;100.00;55844.97;5133139;27;20652;-71
2022/03/14 07:23:55;;;;;;;24.37;22.17;;;;;;;-141.02;100.00;55844.97;5133486;28;20212;-75
2022/03/14 07:26:22;;;;;;;23.27;21.43;;;;;;;-141.02;100.00;55844.97;5133202;27;20197;-74
2022/03/14 07:28:50;;;;;;;21.23;19.97;;;;;;;-141.02;100.00;55844.97;5132781;28;20193;-71
2022/03/14 07:31:18;;;;;;;21.27;19.93;;;;;;;-141.02;100.00;55844.97;5132846;28;20718;-76
2022/03/14 07:33:45;;;;;;;22.40;20.90;;;;;;;-141.02;100.00;55844.97;5133095;27;20200;-72
2022/03/14 07:36:13;;;;;;;19.10;18.00;;;;;;;-141.02;100.00;55844.97;5133040;28;20196;-71
2022/03/14 07:38:40;;;;;;;22.37;20.87;;;;;;;-141.02;100.00;55844.97;5132754;27;20228;-71
2022/03/14 07:41:08;;;;;;;21.70;20.30;;;;;;;-141.02;100.00;55844.97;5132639;27;20219;-72
2022/03/14 07:43:35;;;;;;;24.00;21.83;;;;;;;-141.02;100.00;55844.97;5133557;27;20193;-71
2022/03/14 07:46:02;;;;;;;22.23;20.67;;;;;;;-141.02;100.00;55844.97;5132620;28;20236;-71
2022/03/14 07:48:31;;;;;;;22.23;20.73;;;;;;;-141.02;100.00;55844.97;5132660;27;20284;-71
2022/03/14 07:50:58;;;;;;;22.13;20.83;;;;;;;-141.02;100.00;55844.97;5132601;27;20670;-72
2022/03/14 07:53:26;;;;;;;21.33;20.03;;;;;;;-141.02;100.00;55844.97;5132874;27;20249;-71
2022/03/14 07:55:53;;;;;;;20.77;19.47;;;;;;;-141.02;100.00;55844.97;5132510;28;20200;-72
2022/03/14 07:58:21;;;;;;;21.97;20.57;;;;;;;-141.02;100.00;55844.97;5132773;28;20192;-71
2022/03/14 08:00:48;;;;;;;21.10;19.80;;;;;;;-141.02;100.00;55844.97;5132376;28;20267;-71
2022/03/14 08:03:15;;;;;;;21.83;20.33;;;;;;;-141.02;100.00;55844.97;5134075;27;20297;-71
2022/03/14 08:05:45;;;;;;;22.63;20.93;;;;;;;-141.02;100.00;55844.97;5136597;27;20279;-71
2022/03/14 08:08:15;;;;;;;21.33;20.13;;;;;;;-141.02;100.00;55844.97;5136850;27;20635;-75
2022/03/14 08:10:42;;;;;;;24.57;22.40;;;;;;;-141.02;100.00;55844.97;5136440;27;20189;-73
2022/03/14 08:13:10;;;;;;;22.20;20.70;;;;;;;-141.02;100.00;55844.97;5136515;27;20192;-72
2022/03/14 08:15:37;;;;;;;25.87;23.77;;;;;;;-141.02;100.00;55844.97;5136095;27;20696;-72
2022/03/14 08:18:05;;;;;;;22.97;21.47;;;;;;;-141.02;100.00;55844.97;5136098;27;20228;-72
2022/03/14 08:20:33;;;;;;;20.37;19.27;;;;;;;-141.02;100.00;55844.97;5136316;27;20189;-72
2022/03/14 08:23:03;;;;;;;23.47;21.67;;;;;;;-141.02;100.00;55844.97;5136097;27;20197;-72
2022/03/14 08:25:32;;;;;;;21.30;20.00;;;;;;;-141.02;100.00;55844.97;5136008;27;20192;-72
2022/03/14 08:27:59;;;;;;;22.97;20.97;;;;;;;-141.02;100.00;55844.97;5136142;27;20220;-73
2022/03/14 08:30:27;;;;;;;21.17;19.87;;;;;;;-141.02;100.00;55844.97;5136187;27;20235;-72
2022/03/14 08:32:56;;;;;;;21.43;19.93;;;;;;;-141.02;100.00;55844.97;5136154;27;20192;-74
2022/03/14 08:35:24;;;;;;;26.30;24.17;;;;;;;-141.02;100.00;55844.97;5136079;27;20271;-72
2022/03/14 08:37:53;;;;;;;25.17;23.13;;;;;;;-141.02;100.00;55844.97;5135538;27;20260;-73
2022/03/14 08:40:23;;;;;;;24.30;22.80;;;;;;;-141.02;100.00;55844.97;5135985;27;20196;-73
2022/03/14 08:42:52;;;;;;;25.13;23.33;;;;;;;-141.02;100.00;55844.97;5135604;27;20253;-73
2022/03/14 08:45:19;;;;;;;23.50;22.00;;;;;;;-141.02;100.00;55844.97;5136003;27;20192;-73
2022/03/14 08:47:47;;;;;;;25.37;22.93;;;;;;;-141.02;100.00;55844.97;5135532;27;20245;-73
2022/03/14 08:50:16;;;;;;;24.43;22.83;;;;;;;-141.02;100.00;55844.97;5135454;27;20683;-74
2022/03/14 08:52:45;;;;;;;22.10;20.80;;;;;;;-141.02;100.00;55844.97;5135470;27;20192;-74
2022/03/14 08:55:13;;;;;;;20.77;19.57;;;;;;;-141.02;100.00;55844.97;5135348;27;20249;-75
2022/03/14 08:57:43;;;;;;;25.47;23.67;;;;;;;-141.02;100.00;55844.97;5135316;27;20199;-73
2022/03/14 09:00:12;;;;;;;23.50;21.53;;;;;;;-141.02;100.00;55844.97;5135234;27;20670;-73
2022/03/14 09:02:39;;;;;;;24.97;23.07;;;;;;;-141.02;100.00;55844.97;5135509;27;20300;-73
2022/03/14 09:05:07;;;;;;;21.73;20.43;;;;;;;-141.02;100.00;55844.97;5135218;27;20192;-73
2022/03/14 09:07:35;;;;;;;26.67;24.67;;;;;;;-141.02;100.00;55844.97;5135459;27;20197;-73
2022/03/14 09:10:03;;;;;;;26.77;24.23;;;;;;;-141.02;100.00;55844.97;5135432;27;20607;-73
2022/03/14 09:12:33;;;;;;;21.03;19.83;;;;;;;-141.02;100.00;55844.97;5135255;27;20196;-74
2022/03/14 09:15:01;;;;;;;23.97;22.40;;;;;;;-141.02;100.00;55844.97;5134149;27;20193;-74
2022/03/14 09:17:29;;;;;;;22.57;21.23;;;;;;;-141.02;100.00;55844.97;5134899;27;20632;-73
2022/03/14 09:19:57;;;;;;;24.67;22.43;;;;;;;-141.02;100.00;55844.97;5134878;27;20572;-74
2022/03/14 09:22:24;;;;;;;22.33;21.03;;;;;;;-141.02;100.00;55844.97;5134799;27;20228;-74
2022/03/14 09:24:52;;;;;;;22.17;20.67;;;;;;;-141.02;100.00;55844.97;5134818;27;20618;-74
2022/03/14 09:27:19;;;;;;;21.90;20.70;;;;;;;-141.02;100.00;55844.97;5135023;27;20253;-73
2022/03/14 09:29:46;;;;;;;22.83;21.43;;;;;;;-141.02;100.00;55844.97;5134948;27;20196;-73
2022/03/14 09:32:15;;;;;;;23.30;21.90;;;;;;;-141.02;100.00;55844.97;5135075;27;20192;-74
2022/03/14 09:34:42;;;;;;;24.00;22.00;;;;;;;-141.02;100.00;55844.97;5134908;27;20623;-74
2022/03/14 09:37:10;;;;;;;25.90;23.63;;;;;;;-141.02;100.00;55844.97;5135114;27;20232;-74
2022/03/14 09:39:37;;;;;;;28.37;26.67;;;;;;;-141.02;100.00;55844.97;5134411;27;20259;-74
2022/03/14 09:42:04;;;;;;;23.13;21.73;;;;;;;-141.02;100.00;55844.97;5134367;27;20289;-73
2022/03/14 09:44:31;;;;;;;21.93;20.73;;;;;;;-141.02;100.00;55844.97;5134410;27;20659;-74
2022/03/14 09:47:01;;;;;;;24.27;22.63;;;;;;;-141.02;100.00;55844.97;5134706;27;20276;-73
2022/03/14 09:49:34;;;;;;;23.47;21.87;;;;;;;-141.02;100.00;55844.97;5134398;27;20257;-73
2022/03/14 09:52:01;;;;;;;21.77;20.57;;;;;;;-141.02;100.00;55844.97;5134647;27;20271;-74
2022/03/14 09:54:28;;;;;;;22.17;20.97;;;;;;;-141.02;100.00;55844.97;5134175;27;20199;-73
2022/03/14 09:56:57;;;;;;;22.50;21.10;;;;;;;-141.02;100.00;55844.97;5134445;27;20214;-74
2022/03/14 09:59:24;;;;;;;22.20;21.00;;;;;;;-141.02;100.00;55844.97;5134962;27;20582;-73
2022/03/14 10:01:53;;;;;;;21.07;19.90;;;;;;;-141.02;100.00;55844.97;5134019;27;20650;-74
2022/03/14 10:04:20;;;;;;;23.00;21.67;;;;;;;-141.02;100.00;55844.97;5134308;27;20212;-74
2022/03/14 10:06:49;;;;;;;25.40;23.40;;;;;;;-141.02;100.00;55844.97;5134268;27;20223;-73
2022/03/14 10:09:16;;;;;;;24.40;22.70;;;;;;;-141.02;100.00;55844.97;5134215;27;20215;-74
2022/03/14 10:11:44;;;;;;;35.27;32.80;;;;;;;-141.02;100.00;55844.97;5134156;27;20224;-74
2022/03/14 10:14:19;;;;;;;22.67;21.20;;;;;;;-141.02;100.00;55844.97;5134164;27;20192;-74
2022/03/14 10:16:47;;;;;;;24.77;22.73;;;;;;;-141.02;100.00;55844.97;5134157;27;20633;-74
2022/03/14 10:19:20;;;;;;;23.40;21.50;;;;;;;-141.02;100.00;55844.97;5134078;27;20204;-74
2022/03/14 10:21:50;;;;;;;22.17;20.97;;;;;;;-141.02;100.00;55844.97;5133600;27;20255;-74
2022/03/14 10:24:22;;;;;;;23.00;21.63;;;;;;;-141.02;100.00;55844.97;5134808;27;20200;-74
2022/03/14 10:26:49;;;;;;;23.23;21.83;;;;;;;-141.02;100.00;55844.97;5133639;27;20350;-74
2022/03/14 10:29:16;;;;;;;22.70;21.30;;;;;;;-141.02;100.00;55844.97;5133613;27;20192;-73
2022/03/14 10:31:46;;;;;;;22.90;21.60;;;;;;;-141.02;100.00;55844.97;5133507;27;20203;-73
2022/03/14 10:34:16;;;;;;;22.33;21.03;;;;;;;-141.02;100.00;55844.97;5133558;27;20279;-74
2022/03/14 10:36:46;;;;;;;21.90;20.60;;;;;;;-141.02;100.00;55844.97;5133713;27;20312;-74
2022/03/14 10:39:17;;;;;;;24.30;22.70;;;;;;;-141.02;100.00;55844.97;5133283;27;20314;-74
2022/03/14 10:41:47;;;;;;;23.07;21.67;;;;;;;-141.02;100.00;55844.97;5133368;27;20303;-74
2022/03/14 10:44:24;;;;;;;21.73;20.53;;;;;;;-141.02;100.00;55844.97;5133976;27;20218;-74
2022/03/14 10:46:52;;;;;;;25.53;23.63;;;;;;;-141.02;100.00;55844.97;5133713;27;20184;-74
2022/03/14 10:49:20;;;;;;;22.43;21.13;;;;;;;-141.02;100.00;55844.97;5133529;27;20248;-75
2022/03/14 10:51:54;;;;;;;28.00;26.43;;;;;;;-141.02;100.00;55844.97;5133226;27;20658;-75
2022/03/14 10:54:23;;;;;;;23.00;21.33;;;;;;;-141.02;100.00;55844.97;5133455;27;20249;-74
2022/03/14 10:57:07;;;;;;;50.93;37.43;;;;;;;-141.02;100.00;55844.97;5133431;27;20196;-75